Time;durP1;ratioP1;P1;durP2;ratioP2;P2;SDS_P1;SDS_P2;PMS_P1;PMS_P2;Temp;Humidity;BMP_temperature;BMP_pressure;BME280_temperature;BME280_humidity;BME280_pressure;Samples;Min_cycle;Max_cycle;Signal;HPM_P1;HPM_P2
2020/12/12 00:00:48;;;;;;;;;;;;;;;20.81;42.98;98738.53;3133768;27;114069;-56
2020/12/12 00:02:20;;;;;;;;;;;;;;;20.80;42.90;98737.72;3134686;27;115183;-54
2020/12/12 00:03:51;;;;;;;;;;;;;;;20.80;42.77;98739.72;3132629;27;114958;-54
2020/12/12 00:05:25;;;;;;;;;;;;;;;20.78;42.64;98744.88;3135269;27;115137;-55
2020/12/12 00:07:07;;;;;;;;;;;;;;;20.79;42.68;98743.72;3127809;27;114467;-54
2020/12/12 00:08:38;;;;;;;;;;;;;;;20.78;42.74;98753.28;3131698;27;114141;-54
2020/12/12 00:10:10;;;;;;;;;;;;;;;20.76;43.01;98742.44;3133344;27;115892;-54
2020/12/12 00:11:41;;;;;;;;;;;;;;;20.79;42.92;98738.91;3134327;27;114443;-55
2020/12/12 00:13:14;;;;;;;;;;;;;;;20.76;42.94;98750.03;3132948;27;115281;-54
2020/12/12 00:14:45;;;;;;;;;;;;;;;20.75;43.06;98749.25;3136856;27;115843;-59
2020/12/12 00:16:17;;;;;;;;;;;;;;;20.73;42.89;98748.78;3136506;27;115763;-60
2020/12/12 00:17:49;;;;;;;;;;;;;;;20.73;43.17;98745.16;3136441;27;114797;-60
2020/12/12 00:19:20;;;;;;;;;;;;;;;20.73;43.29;98750.75;3135811;27;114889;-60
2020/12/12 00:20:51;;;;;;;;;;;;;;;20.73;43.04;98747.97;3123540;27;114639;-60
2020/12/12 00:22:26;;;;;;;;;;;;;;;20.70;42.95;98755.13;3132415;27;115075;-60
2020/12/12 00:24:13;;;;;;;;;;;;;;;20.68;43.26;98757.47;3124180;27;115746;-55
2020/12/12 00:25:47;;;;;;;;;;;;;;;20.67;43.42;98752.22;3123085;27;114792;-55
2020/12/12 00:27:21;;;;;;;;;;;;;;;20.66;43.34;98756.22;3119342;27;115838;-54
2020/12/12 00:28:52;;;;;;;;;;;;;;;20.67;43.46;98758.63;3121253;27;115184;-55
2020/12/12 00:30:23;;;;;;;;;;;;;;;20.66;43.34;98759.03;3131978;27;114380;-54
2020/12/12 00:31:58;;;;;;;;;;;;;;;20.67;43.65;98758.63;3119690;27;114786;-55
2020/12/12 00:33:30;;;;;;;;;;;;;;;20.69;43.00;98761.09;3131616;27;114347;-55
2020/12/12 00:35:01;;;;;;;;;;;;;;;20.71;42.80;98758.75;3137314;27;113884;-55
2020/12/12 00:36:37;;;;;;;;;;;;;;;20.73;43.19;98771.22;3137134;27;114057;-57
2020/12/12 00:38:08;;;;;;;;;;;;;;;20.75;43.17;98773.69;3121409;27;114329;-55
2020/12/12 00:39:39;;;;;;;;;;;;;;;20.76;43.30;98775.28;3117993;27;114536;-55
2020/12/12 00:41:10;;;;;;;;;;;;;;;20.76;43.35;98773.28;3131886;27;114053;-55
2020/12/12 00:42:42;;;;;;;;;;;;;;;20.78;43.26;98770.94;3135267;27;113900;-54
2020/12/12 00:44:14;;;;;;;;;;;;;;;20.79;43.39;98777.38;3120816;27;114278;-56
2020/12/12 00:45:49;;;;;;;;;;;;;;;20.79;43.22;98771.78;3119587;27;114018;-55
2020/12/12 00:47:21;;;;;;;;;;;;;;;20.79;43.36;98778.19;3132717;27;114210;-55
2020/12/12 00:48:52;;;;;;;;;;;;;;;20.81;43.40;98780.63;3135307;27;114020;-55
2020/12/12 00:50:24;;;;;;;;;;;;;;;20.82;43.46;98780.28;3123082;27;114146;-56
2020/12/12 00:51:55;;;;;;;;;;;;;;;20.83;43.87;98781.91;3136637;27;114051;-56
2020/12/12 00:53:26;;;;;;;;;;;;;;;20.86;43.68;98785.97;3120498;27;115385;-55
2020/12/12 00:54:58;;;;;;;;;;;;;;;20.88;43.90;98785.63;3132051;27;115193;-55
2020/12/12 00:56:29;;;;;;;;;;;;;;;20.90;43.87;98788.84;3122734;27;114653;-54
2020/12/12 00:58:00;;;;;;;;;;;;;;;20.93;44.07;98788.97;3123810;27;115165;-55
2020/12/12 00:59:31;;;;;;;;;;;;;;;20.96;44.18;98784.59;3122270;27;114777;-55
2020/12/12 01:01:02;;;;;;;;;;;;;;;21.00;43.85;98793.94;3132184;27;116066;-56
2020/12/12 01:02:33;;;;;;;;;;;;;;;21.03;44.02;98790.41;3134343;27;115848;-56
2020/12/12 01:04:05;;;;;;;;;;;;;;;21.07;44.14;98789.31;3129971;27;114228;-56
2020/12/12 01:05:36;;;;;;;;;;;;;;;21.11;44.23;98795.81;3134989;27;114246;-56
2020/12/12 01:07:07;;;;;;;;;;;;;;;21.14;43.88;98799.91;3136427;27;114564;-55
2020/12/12 01:08:39;;;;;;;;;;;;;;;21.16;44.00;98804.00;3133647;27;114242;-55
2020/12/12 01:10:10;;;;;;;;;;;;;;;21.21;43.99;98797.28;3136182;27;115075;-56
2020/12/12 01:11:41;;;;;;;;;;;;;;;21.23;44.17;98800.53;3123285;27;115092;-55
2020/12/12 01:13:12;;;;;;;;;;;;;;;21.26;44.06;98797.00;3130420;27;114664;-56
2020/12/12 01:14:44;;;;;;;;;;;;;;;21.29;43.69;98804.69;3134821;27;115597;-56
2020/12/12 01:16:15;;;;;;;;;;;;;;;21.31;44.29;98807.94;3136464;27;114605;-54
2020/12/12 01:17:47;;;;;;;;;;;;;;;21.33;43.79;98814.03;3132211;27;114690;-55
2020/12/12 01:19:18;;;;;;;;;;;;;;;21.35;43.83;98811.66;3135062;27;114545;-54
2020/12/12 01:20:49;;;;;;;;;;;;;;;21.36;44.00;98813.28;3136403;27;114574;-55
2020/12/12 01:22:21;;;;;;;;;;;;;;;21.38;43.89;98813.75;3136574;27;114766;-55
2020/12/12 01:23:52;;;;;;;;;;;;;;;21.39;43.78;98818.19;3133522;27;114446;-55
2020/12/12 01:25:23;;;;;;;;;;;;;;;21.41;43.94;98820.63;3133170;27;116268;-55
2020/12/12 01:26:55;;;;;;;;;;;;;;;21.43;44.17;98821.06;3136547;27;116572;-55
2020/12/12 01:28:26;;;;;;;;;;;;;;;21.46;44.06;98820.31;3134203;27;114872;-55
2020/12/12 01:29:57;;;;;;;;;;;;;;;21.46;44.22;98829.56;3136110;27;115480;-55
2020/12/12 01:31:28;;;;;;;;;;;;;;;21.48;44.40;98829.22;3136291;27;114849;-60
2020/12/12 01:33:00;;;;;;;;;;;;;;;21.49;44.38;98828.00;3122832;27;114773;-60
2020/12/12 01:34:31;;;;;;;;;;;;;;;21.50;44.37;98832.47;3133763;27;114992;-60
2020/12/12 01:36:04;;;;;;;;;;;;;;;21.50;44.04;98833.28;3135933;27;113977;-60
2020/12/12 01:37:35;;;;;;;;;;;;;;;21.52;44.24;98835.72;3135255;27;114213;-59
2020/12/12 01:39:06;;;;;;;;;;;;;;;21.52;43.93;98835.72;3134237;27;114261;-58
2020/12/12 01:40:38;;;;;;;;;;;;;;;21.53;44.14;98834.56;3136242;27;114051;-58
2020/12/12 01:42:09;;;;;;;;;;;;;;;21.53;44.17;98840.19;3136688;27;114478;-58
2020/12/12 01:43:40;;;;;;;;;;;;;;;21.52;44.04;98836.56;3135444;27;114533;-59
2020/12/12 01:45:11;;;;;;;;;;;;;;;21.53;44.28;98840.19;3135847;27;114287;-59
2020/12/12 01:46:42;;;;;;;;;;;;;;;21.52;44.03;98842.16;3135336;27;116303;-55
2020/12/12 01:48:14;;;;;;;;;;;;;;;21.53;44.00;98846.59;3136151;27;113960;-55
2020/12/12 01:49:45;;;;;;;;;;;;;;;21.53;44.38;98849.41;3135429;27;114410;-55
2020/12/12 01:51:17;;;;;;;;;;;;;;;21.54;44.25;98850.22;3121629;27;114065;-55
2020/12/12 01:52:50;;;;;;;;;;;;;;;21.52;44.33;98856.22;3131075;27;114006;-55
2020/12/12 01:54:22;;;;;;;;;;;;;;;21.54;44.02;98844.59;3134431;27;114222;-55
2020/12/12 01:55:53;;;;;;;;;;;;;;;21.53;44.18;98857.81;3124974;27;114164;-55
2020/12/12 01:57:25;;;;;;;;;;;;;;;21.54;44.21;98858.66;3132258;27;115191;-55
2020/12/12 01:58:56;;;;;;;;;;;;;;;21.53;44.36;98863.44;3135486;27;114885;-56
2020/12/12 02:00:27;;;;;;;;;;;;;;;21.53;44.09;98865.47;3136476;27;115250;-56
2020/12/12 02:02:00;;;;;;;;;;;;;;;21.52;44.29;98867.47;3136610;27;115236;-55
2020/12/12 02:03:32;;;;;;;;;;;;;;;21.53;44.10;98863.44;3128310;27;115400;-55
2020/12/12 02:05:04;;;;;;;;;;;;;;;21.53;44.11;98873.91;3123753;27;114358;-55
2020/12/12 02:06:36;;;;;;;;;;;;;;;21.53;44.47;98873.91;3133553;27;114086;-54
2020/12/12 02:08:12;;;;;;;;;;;;;;;21.52;44.37;98877.88;3134436;27;114430;-54
2020/12/12 02:09:44;;;;;;;;;;;;;;;21.52;44.24;98883.50;3135459;27;115617;-59
2020/12/12 02:11:16;;;;;;;;;;;;;;;21.52;44.29;98887.13;3135567;27;114295;-58
2020/12/12 02:12:48;;;;;;;;;;;;;;;21.51;44.02;98888.31;3134883;27;115290;-59
2020/12/12 02:14:19;;;;;;;;;;;;;;;21.50;44.31;98892.28;3134582;27;116102;-55
2020/12/12 02:15:51;;;;;;;;;;;;;;;21.50;44.25;98888.66;3122778;27;114469;-55
2020/12/12 02:17:23;;;;;;;;;;;;;;;21.50;44.33;98899.91;3135306;27;114932;-55
2020/12/12 02:18:55;;;;;;;;;;;;;;;21.49;44.28;98899.06;3135077;27;115477;-55
2020/12/12 02:20:26;;;;;;;;;;;;;;;21.49;44.68;98901.06;3134540;27;114885;-55
2020/12/12 02:21:59;;;;;;;;;;;;;;;21.49;44.34;98909.50;3136007;27;115871;-55
2020/12/12 02:23:30;;;;;;;;;;;;;;;21.46;44.52;98902.63;3132216;27;114312;-55
2020/12/12 02:25:01;;;;;;;;;;;;;;;21.46;44.43;98904.63;3135133;27;114264;-54
2020/12/12 02:26:32;;;;;;;;;;;;;;;21.46;44.57;98901.81;3133813;27;114668;-55
2020/12/12 02:28:10;;;;;;;;;;;;;;;21.45;44.64;98909.41;3135737;27;115719;-55
2020/12/12 02:29:47;;;;;;;;;;;;;;;21.43;44.71;98906.19;3133028;27;115397;-54
2020/12/12 02:31:23;;;;;;;;;;;;;;;21.42;44.87;98907.34;3134853;27;114592;-54
2020/12/12 02:32:54;;;;;;;;;;;;;;;21.41;44.92;98911.34;3134693;27;115815;-53
2020/12/12 02:34:26;;;;;;;;;;;;;;;21.41;44.82;98910.50;3134257;27;114308;-54
2020/12/12 02:35:57;;;;;;;;;;;;;;;21.41;44.91;98913.31;3136225;27;114624;-54
2020/12/12 02:37:28;;;;;;;;;;;;;;;21.39;44.76;98919.31;3135416;27;116594;-54
2020/12/12 02:38:59;;;;;;;;;;;;;;;21.39;44.53;98924.13;3132874;27;115173;-54
2020/12/12 02:40:30;;;;;;;;;;;;;;;21.39;44.80;98921.31;3138553;27;115696;-54
2020/12/12 02:42:02;;;;;;;;;;;;;;;21.36;44.86;98927.63;3135168;27;114244;-55
2020/12/12 02:43:33;;;;;;;;;;;;;;;21.37;44.81;98932.09;3134359;27;114200;-54
2020/12/12 02:45:04;;;;;;;;;;;;;;;21.35;45.36;98924.00;3135681;27;114162;-55
2020/12/12 02:46:35;;;;;;;;;;;;;;;21.33;45.08;98920.78;3134977;27;113910;-54
2020/12/12 02:48:06;;;;;;;;;;;;;;;21.33;44.69;98922.75;3120709;27;114898;-54
2020/12/12 02:49:38;;;;;;;;;;;;;;;21.32;44.57;98929.56;3130058;27;114303;-54
2020/12/12 02:51:09;;;;;;;;;;;;;;;21.31;44.70;98928.72;3135572;27;114197;-54
2020/12/12 02:52:41;;;;;;;;;;;;;;;21.30;44.70;98933.53;3134075;27;114312;-54
2020/12/12 02:54:13;;;;;;;;;;;;;;;21.29;44.78;98934.72;3133482;27;114359;-54
2020/12/12 02:55:44;;;;;;;;;;;;;;;21.28;44.75;98926.66;3134632;27;114713;-54
2020/12/12 02:57:15;;;;;;;;;;;;;;;21.26;44.27;98938.25;3121455;27;113676;-54
2020/12/12 02:58:46;;;;;;;;;;;;;;;21.26;44.67;98952.28;3129974;27;114492;-54
2020/12/12 03:00:22;;;;;;;;;;;;;;;21.24;44.81;98949.03;3135725;27;113807;-54
2020/12/12 03:01:53;;;;;;;;;;;;;;;21.24;44.50;98954.66;3138517;27;114188;-54
2020/12/12 03:03:25;;;;;;;;;;;;;;;21.23;44.60;98957.81;3133875;27;114282;-54
2020/12/12 03:04:56;;;;;;;;;;;;;;;21.22;44.70;98953.38;3134410;27;115138;-55
2020/12/12 03:06:27;;;;;;;;;;;;;;;21.19;44.68;98960.53;3135190;27;114636;-54
2020/12/12 03:07:58;;;;;;;;;;;;;;;21.19;44.48;98965.34;3133855;27;114436;-54
2020/12/12 03:09:29;;;;;;;;;;;;;;;21.18;44.82;98970.13;3134099;27;115143;-54
2020/12/12 03:11:01;;;;;;;;;;;;;;;21.18;44.83;98966.50;3134897;27;115366;-54
2020/12/12 03:12:32;;;;;;;;;;;;;;;21.16;44.64;98968.88;3134288;27;115355;-55
2020/12/12 03:14:04;;;;;;;;;;;;;;;21.15;44.86;98973.69;3134685;27;114645;-55
2020/12/12 03:15:35;;;;;;;;;;;;;;;21.15;44.84;98975.66;3134615;27;114255;-54
2020/12/12 03:17:09;;;;;;;;;;;;;;;21.12;45.11;98977.16;3134759;27;115345;-54
2020/12/12 03:18:41;;;;;;;;;;;;;;;21.12;44.89;98976.38;3134658;27;115000;-54
2020/12/12 03:20:12;;;;;;;;;;;;;;;21.12;44.88;98979.19;3134903;27;114346;-55
2020/12/12 03:21:43;;;;;;;;;;;;;;;21.11;45.04;98981.16;3134656;27;115406;-54
2020/12/12 03:23:14;;;;;;;;;;;;;;;21.10;44.72;98981.50;3123296;27;115185;-54
2020/12/12 03:24:46;;;;;;;;;;;;;;;21.08;44.89;98990.28;3129160;27;114787;-54
2020/12/12 03:26:17;;;;;;;;;;;;;;;21.07;45.06;98991.50;3133954;27;116493;-54
2020/12/12 03:27:48;;;;;;;;;;;;;;;21.09;44.96;98996.72;3134300;27;114792;-55
2020/12/12 03:29:19;;;;;;;;;;;;;;;21.09;45.12;98994.72;3120847;27;116432;-54
2020/12/12 03:30:51;;;;;;;;;;;;;;;21.07;44.88;98999.91;3130073;27;114794;-55
2020/12/12 03:32:22;;;;;;;;;;;;;;;21.05;45.11;98998.63;3134713;27;115601;-55
2020/12/12 03:33:53;;;;;;;;;;;;;;;21.01;45.03;98998.53;3133879;27;114791;-55
2020/12/12 03:35:27;;;;;;;;;;;;;;;20.98;45.03;99004.06;3134330;27;114763;-55
2020/12/12 03:36:59;;;;;;;;;;;;;;;20.97;45.06;99002.41;3135114;27;115972;-55
2020/12/12 03:38:30;;;;;;;;;;;;;;;20.97;45.32;99002.41;3131590;27;114651;-55
2020/12/12 03:40:02;;;;;;;;;;;;;;;20.94;45.21;99000.34;3135070;27;115928;-55
2020/12/12 03:41:33;;;;;;;;;;;;;;;20.94;45.33;99008.75;3134915;27;114667;-55
2020/12/12 03:43:04;;;;;;;;;;;;;;;20.91;45.14;99013.06;3121186;27;114686;-55
2020/12/12 03:44:36;;;;;;;;;;;;;;;20.90;45.49;99014.25;3132634;27;115261;-55
2020/12/12 03:46:07;;;;;;;;;;;;;;;20.88;45.37;99011.00;3120969;27;114868;-55
2020/12/12 03:47:39;;;;;;;;;;;;;;;20.88;45.61;99016.63;3129894;27;113911;-55
2020/12/12 03:49:10;;;;;;;;;;;;;;;20.86;45.34;99018.94;3132639;27;114215;-55
2020/12/12 03:50:41;;;;;;;;;;;;;;;20.85;45.74;99014.50;3134711;27;114524;-55
2020/12/12 03:52:14;;;;;;;;;;;;;;;20.85;45.72;99020.13;3135184;27;114073;-56
2020/12/12 03:53:45;;;;;;;;;;;;;;;20.83;45.88;99023.31;3132655;27;114472;-55
2020/12/12 03:55:17;;;;;;;;;;;;;;;20.81;45.61;99028.44;3133930;27;113966;-56
2020/12/12 03:56:48;;;;;;;;;;;;;;;20.80;45.77;99026.81;3134833;27;114127;-55
2020/12/12 03:58:19;;;;;;;;;;;;;;;20.79;45.69;99028.00;3134007;27;114413;-55
2020/12/12 03:59:50;;;;;;;;;;;;;;;20.79;45.77;99029.97;3134057;27;114173;-55
2020/12/12 04:01:21;;;;;;;;;;;;;;;20.77;45.58;99033.13;3134525;27;114240;-55
2020/12/12 04:02:53;;;;;;;;;;;;;;;20.78;45.79;99039.56;3120524;27;114186;-55
2020/12/12 04:04:24;;;;;;;;;;;;;;;20.76;45.92;99034.31;3128778;27;114159;-55
2020/12/12 04:05:56;;;;;;;;;;;;;;;20.74;45.87;99031.06;3134806;27;113819;-55
2020/12/12 04:07:27;;;;;;;;;;;;;;;20.74;45.96;99033.88;3124454;27;115359;-55
2020/12/12 04:09:00;;;;;;;;;;;;;;;20.73;46.09;99037.00;3127074;27;115250;-55
2020/12/12 04:10:31;;;;;;;;;;;;;;;20.72;45.98;99026.94;3134042;27;114855;-55
2020/12/12 04:12:05;;;;;;;;;;;;;;;20.74;45.74;99038.66;3133490;27;114154;-55
2020/12/12 04:13:36;;;;;;;;;;;;;;;20.70;45.87;99035.75;3134172;27;115117;-55
2020/12/12 04:15:07;;;;;;;;;;;;;;;20.70;45.90;99046.16;3134722;27;114183;-55
2020/12/12 04:16:38;;;;;;;;;;;;;;;20.69;46.08;99039.72;3133298;27;114373;-55
2020/12/12 04:18:11;;;;;;;;;;;;;;;20.68;46.09;99046.50;3133571;27;115244;-56
2020/12/12 04:19:42;;;;;;;;;;;;;;;20.66;46.14;99043.25;3131893;27;114664;-55
2020/12/12 04:21:14;;;;;;;;;;;;;;;20.65;46.33;99040.78;3130824;27;114041;-55
2020/12/12 04:22:46;;;;;;;;;;;;;;;20.65;46.31;99055.63;3131896;27;114634;-55
2020/12/12 04:24:17;;;;;;;;;;;;;;;20.66;46.27;99060.09;3132981;27;115202;-55
2020/12/12 04:25:48;;;;;;;;;;;;;;;20.63;46.37;99057.97;3133005;27;114239;-55
2020/12/12 04:27:20;;;;;;;;;;;;;;;20.64;46.39;99055.97;3132146;27;115088;-55
2020/12/12 04:28:52;;;;;;;;;;;;;;;20.63;46.48;99072.00;3121681;27;114670;-55
2020/12/12 04:30:23;;;;;;;;;;;;;;;20.63;46.40;99065.56;3128830;27;114373;-55
2020/12/12 04:31:54;;;;;;;;;;;;;;;20.62;46.31;99064.78;3134261;27;115746;-60
2020/12/12 04:33:27;;;;;;;;;;;;;;;20.61;45.85;99068.75;3132640;27;114684;-59
2020/12/12 04:34:59;;;;;;;;;;;;;;;20.60;46.10;99071.91;3133434;27;115318;-59
2020/12/12 04:36:32;;;;;;;;;;;;;;;20.60;46.05;99074.72;3133574;27;115119;-59
2020/12/12 04:38:04;;;;;;;;;;;;;;;20.58;46.19;99075.06;3132657;27;114592;-59
2020/12/12 04:39:36;;;;;;;;;;;;;;;20.57;46.21;99078.22;3131617;27;114441;-59
2020/12/12 04:41:09;;;;;;;;;;;;;;;20.57;45.94;99081.84;3133831;27;116564;-59
2020/12/12 04:42:42;;;;;;;;;;;;;;;20.57;46.17;99084.66;3133517;27;114788;-59
2020/12/12 04:44:13;;;;;;;;;;;;;;;20.56;46.30;99096.22;3133138;27;115046;-59
2020/12/12 04:45:46;;;;;;;;;;;;;;;20.54;46.11;99090.13;3133247;27;116007;-60
2020/12/12 04:47:18;;;;;;;;;;;;;;;20.53;46.23;99094.97;3131145;27;114573;-59
2020/12/12 04:48:49;;;;;;;;;;;;;;;20.52;46.33;99098.09;3133278;27;115845;-60
2020/12/12 04:50:28;;;;;;;;;;;;;;;20.52;46.06;99087.72;3136653;27;116102;-60
2020/12/12 04:52:02;;;;;;;;;;;;;;;20.52;46.25;99093.31;3132258;27;114252;-60
2020/12/12 04:53:34;;;;;;;;;;;;;;;20.50;46.13;99097.63;3116773;27;114278;-60
2020/12/12 04:55:06;;;;;;;;;;;;;;;20.49;46.13;99096.81;3129225;27;114029;-55
2020/12/12 04:56:38;;;;;;;;;;;;;;;20.48;46.33;99097.19;3133621;27;114375;-55
2020/12/12 04:58:13;;;;;;;;;;;;;;;20.49;46.28;99099.63;3133333;27;114192;-55
2020/12/12 04:59:44;;;;;;;;;;;;;;;20.46;46.38;99097.53;3133618;27;114245;-55
2020/12/12 05:01:18;;;;;;;;;;;;;;;20.49;46.14;99099.63;3133954;27;114459;-55
2020/12/12 05:02:49;;;;;;;;;;;;;;;20.47;46.21;99096.38;3135625;27;114240;-54
2020/12/12 05:04:21;;;;;;;;;;;;;;;20.46;46.21;99105.13;3134672;27;113944;-54
2020/12/12 05:05:52;;;;;;;;;;;;;;;20.44;46.31;99102.69;3135982;27;113982;-54
2020/12/12 05:07:23;;;;;;;;;;;;;;;20.43;46.08;99106.66;3136308;27;114027;-54
2020/12/12 05:08:54;;;;;;;;;;;;;;;20.43;46.24;99112.28;3133405;27;114222;-54
2020/12/12 05:10:26;;;;;;;;;;;;;;;20.42;45.98;99111.44;3135611;27;114454;-54
2020/12/12 05:11:57;;;;;;;;;;;;;;;20.41;46.32;99115.41;3138959;27;114724;-54
2020/12/12 05:13:29;;;;;;;;;;;;;;;20.42;46.04;99119.88;3134426;27;114506;-54
2020/12/12 05:15:01;;;;;;;;;;;;;;;20.38;46.00;99116.13;3135196;27;115242;-54
2020/12/12 05:16:32;;;;;;;;;;;;;;;20.39;46.10;99128.16;3135722;27;115108;-54
2020/12/12 05:18:03;;;;;;;;;;;;;;;20.36;46.50;99128.84;3135672;27;115167;-54
2020/12/12 05:19:34;;;;;;;;;;;;;;;20.36;46.32;99121.25;3119495;27;115310;-55
2020/12/12 05:21:06;;;;;;;;;;;;;;;20.36;46.15;99128.84;3131019;27;114346;-55
2020/12/12 05:22:38;;;;;;;;;;;;;;;20.33;46.55;99124.78;3134826;27;114074;-55
2020/12/12 05:24:11;;;;;;;;;;;;;;;20.32;46.02;99123.13;3120648;27;115409;-55
2020/12/12 05:25:43;;;;;;;;;;;;;;;20.33;45.97;99123.97;3131666;27;114804;-55
2020/12/12 05:27:15;;;;;;;;;;;;;;;20.32;45.99;99131.56;3134960;27;114816;-54
2020/12/12 05:28:47;;;;;;;;;;;;;;;20.32;46.32;99131.56;3134432;27;114284;-55
2020/12/12 05:30:19;;;;;;;;;;;;;;;20.32;46.24;99141.94;3135842;27;115155;-55
2020/12/12 05:31:50;;;;;;;;;;;;;;;20.30;46.42;99141.50;3136190;27;115480;-55
2020/12/12 05:33:23;;;;;;;;;;;;;;;20.30;46.09;99138.69;3137810;27;114517;-54
2020/12/12 05:34:56;;;;;;;;;;;;;;;20.29;46.40;99145.44;3131706;27;114687;-55
2020/12/12 05:36:28;;;;;;;;;;;;;;;20.26;46.59;99143.34;3135176;27;114627;-60
2020/12/12 05:38:00;;;;;;;;;;;;;;;20.24;46.51;99149.28;3120534;27;116008;-60
2020/12/12 05:39:32;;;;;;;;;;;;;;;20.23;46.45;99155.25;3129663;27;115705;-60
2020/12/12 05:41:04;;;;;;;;;;;;;;;20.24;46.43;99159.69;3136161;27;114413;-60
2020/12/12 05:42:35;;;;;;;;;;;;;;;20.23;46.65;99166.47;3135544;27;116509;-60
2020/12/12 05:44:07;;;;;;;;;;;;;;;20.21;46.73;99166.00;3134926;27;114784;-60
2020/12/12 05:45:38;;;;;;;;;;;;;;;20.22;46.51;99159.19;3135900;27;115623;-60
2020/12/12 05:47:10;;;;;;;;;;;;;;;20.23;46.28;99169.25;3135506;27;114579;-59
2020/12/12 05:48:41;;;;;;;;;;;;;;;20.21;46.42;99171.63;3134716;27;115703;-60
2020/12/12 05:50:12;;;;;;;;;;;;;;;20.18;46.60;99173.13;3135122;27;114783;-60
2020/12/12 05:51:44;;;;;;;;;;;;;;;20.18;46.82;99175.91;3136099;27;116487;-60
2020/12/12 05:53:17;;;;;;;;;;;;;;;20.16;46.46;99171.84;3116640;27;116532;-60
2020/12/12 05:54:49;;;;;;;;;;;;;;;20.15;46.60;99179.44;3130981;27;115881;-59
2020/12/12 05:56:21;;;;;;;;;;;;;;;20.15;46.62;99181.41;3138353;27;114727;-59
2020/12/12 05:57:53;;;;;;;;;;;;;;;20.15;46.56;99178.59;3134787;27;114100;-60
2020/12/12 05:59:24;;;;;;;;;;;;;;;20.17;46.49;99182.69;3134839;27;114129;-60
2020/12/12 06:00:56;;;;;;;;;;;;;;;20.14;46.45;99180.59;3133033;27;113909;-60
2020/12/12 06:02:28;;;;;;;;;;;;;;;20.12;46.39;99188.56;3135228;27;114267;-60
2020/12/12 06:04:04;;;;;;;;;;;;;;;20.11;46.67;99188.88;3121059;27;114604;-59
2020/12/12 06:05:38;;;;;;;;;;;;;;;20.11;46.54;99186.09;3130734;27;114255;-60
2020/12/12 06:07:20;;;;;;;;;;;;;;;20.12;46.53;99182.94;3121463;27;114421;-55
2020/12/12 06:09:02;;;;;;;;;;;;;;;20.11;46.69;99184.09;3129992;27;114482;-54
2020/12/12 06:10:34;;;;;;;;;;;;;;;20.12;46.41;99191.34;3120252;27;114452;-54
2020/12/12 06:12:05;;;;;;;;;;;;;;;20.11;46.72;99195.31;3129924;27;114523;-55
2020/12/12 06:13:38;;;;;;;;;;;;;;;20.12;46.53;99194.16;3132163;27;114509;-54
2020/12/12 06:15:11;;;;;;;;;;;;;;;20.11;46.80;99195.31;3135275;27;114000;-54
2020/12/12 06:16:42;;;;;;;;;;;;;;;20.11;46.71;99200.09;3134976;27;114056;-54
2020/12/12 06:18:26;;;;;;;;;;;;;;;20.10;46.90;99209.69;3138736;27;113885;-54
2020/12/12 06:19:58;;;;;;;;;;;;;;;20.09;47.06;99202.41;3133100;27;116435;-54
2020/12/12 06:21:29;;;;;;;;;;;;;;;20.12;46.90;99208.19;3135132;27;114315;-60
2020/12/12 06:23:01;;;;;;;;;;;;;;;20.07;47.10;99205.59;3133393;27;114825;-60
2020/12/12 06:24:34;;;;;;;;;;;;;;;20.09;47.01;99208.03;3132335;27;114754;-55
2020/12/12 06:26:06;;;;;;;;;;;;;;;20.07;46.79;99210.38;3135304;27;115955;-54
2020/12/12 06:27:41;;;;;;;;;;;;;;;20.07;46.79;99218.78;3132044;27;115325;-55
2020/12/12 06:29:14;;;;;;;;;;;;;;;20.08;47.00;99223.25;3134150;27;114132;-55
2020/12/12 06:30:45;;;;;;;;;;;;;;;20.03;46.98;99231.88;3135607;27;114324;-60
2020/12/12 06:32:18;;;;;;;;;;;;;;;20.02;46.98;99231.03;3133003;27;115242;-60
2020/12/12 06:33:52;;;;;;;;;;;;;;;20.02;46.69;99235.81;3134121;27;115409;-59
2020/12/12 06:35:30;;;;;;;;;;;;;;;20.01;46.79;99234.19;3134358;27;114572;-61
2020/12/12 06:37:01;;;;;;;;;;;;;;;20.02;46.60;99241.44;3132515;27;114058;-60
2020/12/12 06:38:32;;;;;;;;;;;;;;;20.00;46.74;99238.97;3131788;27;114184;-60
2020/12/12 06:40:15;;;;;;;;;;;;;;;19.98;46.89;99241.31;3137906;27;115432;-60
2020/12/12 06:41:48;;;;;;;;;;;;;;;19.98;46.97;99250.56;3132213;27;116018;-60
2020/12/12 06:43:26;;;;;;;;;;;;;;;19.98;46.60;99255.34;3133725;27;114593;-60
2020/12/12 06:44:58;;;;;;;;;;;;;;;19.99;46.73;99251.34;3132547;27;114847;-60
2020/12/12 06:46:48;;;;;;;;;;;;;;;19.95;46.69;99256.00;3135263;27;115914;-60
2020/12/12 06:48:23;;;;;;;;;;;;;;;19.98;46.89;99255.34;3131625;27;116044;-59
2020/12/12 06:50:15;;;;;;;;;;;;;;;19.95;46.73;99261.59;3135066;27;115974;-59
2020/12/12 06:51:46;;;;;;;;;;;;;;;19.93;46.75;99261.97;3133100;27;114787;-61
2020/12/12 06:53:19;;;;;;;;;;;;;;;19.93;46.64;99269.56;3132734;27;114450;-61
2020/12/12 06:55:03;;;;;;;;;;;;;;;19.90;47.00;99265.44;3134565;27;115675;-60
2020/12/12 06:56:34;;;;;;;;;;;;;;;19.91;46.84;99269.91;3134472;27;116164;-61
2020/12/12 06:58:32;;;;;;;;;;;;;;;19.89;46.91;99272.25;3134824;27;114587;-61
2020/12/12 07:00:30;;;;;;;;;;;;;;;19.89;46.97;99274.22;3131806;27;114650;-61
2020/12/12 07:02:02;;;;;;;;;;;;;;;19.88;46.97;99280.97;3131308;27;114816;-59
2020/12/12 07:03:34;;;;;;;;;;;;;;;19.88;46.92;99287.41;3136467;27;114822;-60
2020/12/12 07:05:21;;;;;;;;;;;;;;;19.88;46.91;99290.22;3135114;27;114204;-59
2020/12/12 07:06:56;;;;;;;;;;;;;;;19.88;46.60;99295.00;3134696;27;114645;-60
2020/12/12 07:08:30;;;;;;;;;;;;;;;19.86;46.99;99292.53;3132017;27;114071;-60
2020/12/12 07:10:03;;;;;;;;;;;;;;;19.87;47.05;99296.16;3134388;27;114466;-60
2020/12/12 07:11:36;;;;;;;;;;;;;;;19.87;47.29;99298.97;3134242;27;114337;-60
2020/12/12 07:13:32;;;;;;;;;;;;;;;19.90;47.19;99301.88;3132243;27;114551;-60
2020/12/12 07:15:05;;;;;;;;;;;;;;;19.92;46.98;99305.19;3135312;27;114088;-58
2020/12/12 07:16:36;;;;;;;;;;;;;;;19.95;46.97;99303.66;3134970;27;115057;-58
2020/12/12 07:18:08;;;;;;;;;;;;;;;19.98;47.12;99309.41;3135305;27;113678;-58
2020/12/12 07:19:40;;;;;;;;;;;;;;;20.02;46.90;99308.72;3133470;27;114251;-58
2020/12/12 07:21:12;;;;;;;;;;;;;;;20.05;47.20;99311.66;3132006;27;114411;-58
2020/12/12 07:22:46;;;;;;;;;;;;;;;20.08;46.94;99313.75;3134240;27;114451;-59
2020/12/12 07:24:17;;;;;;;;;;;;;;;20.12;46.98;99317.53;3132322;27;114627;-59
2020/12/12 07:25:49;;;;;;;;;;;;;;;20.18;47.30;99326.53;3121041;27;114322;-59
2020/12/12 07:27:20;;;;;;;;;;;;;;;20.21;47.26;99323.88;3134220;27;114728;-58
2020/12/12 07:28:51;;;;;;;;;;;;;;;20.27;46.99;99327.25;3133737;27;114704;-58
2020/12/12 07:30:22;;;;;;;;;;;;;;;20.31;47.07;99331.84;3134981;27;115772;-59
2020/12/12 07:31:54;;;;;;;;;;;;;;;20.35;47.25;99326.41;3135220;27;115282;-59
2020/12/12 07:33:25;;;;;;;;;;;;;;;20.39;46.99;99325.34;3134287;27;115417;-59
2020/12/12 07:34:58;;;;;;;;;;;;;;;20.44;47.18;99338.34;3134067;27;114134;-59
2020/12/12 07:36:29;;;;;;;;;;;;;;;20.49;46.87;99338.09;3134516;27;114235;-59
2020/12/12 07:38:03;;;;;;;;;;;;;;;20.53;47.13;99344.66;3133389;27;114288;-59
2020/12/12 07:39:39;;;;;;;;;;;;;;;20.58;47.14;99338.00;3121292;27;114267;-60
2020/12/12 07:41:11;;;;;;;;;;;;;;;20.62;47.06;99338.97;3134745;27;114621;-60
2020/12/12 07:42:42;;;;;;;;;;;;;;;20.66;46.57;99337.91;3120345;27;114555;-61
2020/12/12 07:44:14;;;;;;;;;;;;;;;20.77;46.44;99343.88;3130368;27;115889;-61
2020/12/12 07:47:16;;;;;;;;;;;;;;;20.80;46.55;99346.78;3133817;27;114084;-59
2020/12/12 07:49:00;;;;;;;;;;;;;;;20.82;46.48;99355.69;3138643;27;114002;-58
2020/12/12 07:50:32;;;;;;;;;;;;;;;20.85;46.47;99354.97;3134721;27;114738;-59
2020/12/12 07:52:05;;;;;;;;;;;;;;;20.89;46.35;99354.31;3135406;27;115954;-59
2020/12/12 07:53:36;;;;;;;;;;;;;;;20.91;46.42;99360.38;3128975;27;115324;-58
2020/12/12 07:55:10;;;;;;;;;;;;;;;20.94;46.18;99362.50;3123071;27;115686;-59
2020/12/12 07:56:52;;;;;;;;;;;;;;;20.98;46.56;99371.88;3135054;27;115729;-59